Time;durP1;ratioP1;P1;durP2;ratioP2;P2;SDS_P1;SDS_P2;PMS_P1;PMS_P2;Temp;Humidity;BMP_temperature;BMP_pressure;BME280_temperature;BME280_humidity;BME280_pressure;Samples;Min_cycle;Max_cycle;Signal;HPM_P1;HPM_P2
2022/12/01 00:01:19;;;;;;;7.93;3.85;;;5.40;99.90;;;;;;4971308;28;20025;-76
2022/12/01 00:03:46;;;;;;;7.05;3.38;;;5.40;99.90;;;;;;4971915;28;20026;-77
2022/12/01 00:06:14;;;;;;;10.45;4.47;;;5.30;99.90;;;;;;4972334;28;20023;-79
2022/12/01 00:10:24;;;;;;;7.88;3.58;;;5.40;99.90;;;;;;4971291;28;20027;-75
2022/12/01 00:11:32;;;;;;;6.22;3.05;;;5.40;99.90;;;;;;4971165;28;20030;-74
2022/12/01 00:14:00;;;;;;;5.55;2.47;;;5.40;99.90;;;;;;4971343;28;20039;-76
2022/12/01 00:16:26;;;;;;;5.68;2.88;;;5.40;99.90;;;;;;4971587;28;20398;-75
2022/12/01 00:18:52;;;;;;;4.93;2.55;;;5.40;99.90;;;;;;4970667;28;20058;-76
2022/12/01 00:21:21;;;;;;;4.22;2.33;;;5.40;99.90;;;;;;4971371;28;20030;-74
2022/12/01 00:24:02;;;;;;;4.10;2.67;;;5.40;99.90;;;;;;4971008;28;20093;-78
2022/12/01 00:26:28;;;;;;;5.75;2.30;;;5.40;99.90;;;;;;4971147;28;20038;-75
2022/12/01 00:28:57;;;;;;;3.40;2.15;;;5.40;99.90;;;;;;4971801;28;20039;-76
2022/12/01 00:31:23;;;;;;;4.45;2.35;;;5.40;99.90;;;;;;4975284;28;20485;-78
2022/12/01 00:33:49;;;;;;;3.22;1.85;;;5.40;99.90;;;;;;4975601;28;20107;-75
2022/12/01 00:36:35;;;;;;;4.03;2.40;;;5.40;99.90;;;;;;4975458;28;20441;-74
2022/12/01 00:39:01;;;;;;;4.30;2.40;;;5.40;99.90;;;;;;4975373;28;20034;-76
2022/12/01 00:41:26;;;;;;;4.13;2.55;;;5.40;99.90;;;;;;4975440;28;20018;-76
2022/12/01 00:43:52;;;;;;;5.13;2.58;;;5.40;99.90;;;;;;4974904;28;20035;-76
2022/12/01 00:46:19;;;;;;;4.60;2.42;;;5.40;99.90;;;;;;4975176;28;20027;-75
2022/12/01 00:48:44;;;;;;;5.75;2.65;;;5.40;99.90;;;;;;4975440;28;20397;-75
2022/12/01 00:51:10;;;;;;;6.63;2.67;;;5.40;99.90;;;;;;4975006;28;20022;-75
2022/12/01 00:53:36;;;;;;;9.05;3.92;;;5.40;99.90;;;;;;4975031;28;20473;-76
2022/12/01 00:56:02;;;;;;;7.63;3.88;;;5.40;99.90;;;;;;4974994;28;20019;-77
2022/12/01 00:58:28;;;;;;;7.30;3.40;;;5.30;99.90;;;;;;4973753;28;20082;-75
2022/12/01 01:00:59;;;;;;;6.72;3.80;;;5.30;99.90;;;;;;4974597;28;20042;-75
2022/12/01 01:03:25;;;;;;;8.00;3.80;;;5.30;99.90;;;;;;4975089;28;20463;-74
2022/12/01 01:05:51;;;;;;;7.13;3.63;;;5.20;99.90;;;;;;4974961;28;20015;-75
2022/12/01 01:08:17;;;;;;;6.82;3.58;;;5.10;99.90;;;;;;4975272;28;20097;-74
2022/12/01 01:10:44;;;;;;;8.75;4.78;;;5.00;99.90;;;;;;4975464;28;20026;-73
2022/12/01 01:13:16;;;;;;;7.75;4.15;;;5.00;99.90;;;;;;4984936;28;20086;-74
2022/12/01 01:16:11;;;;;;;;;;;;;;;;;;;;;
2022/12/01 01:18:39;;;;;;;;;;;4.80;99.90;;;;;;4974506;28;20102;-75
2022/12/01 01:21:20;;;;;;;8.23;3.80;;;4.80;99.90;;;;;;4957272;28;20473;-74
2022/12/01 01:23:56;;;;;;;7.15;3.30;;;4.80;99.90;;;;;;4974679;28;20022;-75
2022/12/01 01:26:29;;;;;;;12.52;6.95;;;4.80;99.90;;;;;;4974854;28;20066;-75
2022/12/01 01:28:57;;;;;;;7.47;3.38;;;4.70;99.90;;;;;;4974305;28;20047;-77
2022/12/01 01:31:30;;;;;;;8.25;4.20;;;4.70;99.90;;;;;;4974496;28;20026;-74
2022/12/01 01:34:03;;;;;;;8.40;4.10;;;4.70;99.90;;;;;;4974548;28;20057;-73
2022/12/01 01:36:46;;;;;;;7.10;4.22;;;4.60;99.90;;;;;;4967327;28;20026;-76
2022/12/01 01:39:28;;;;;;;5.85;3.63;;;4.60;99.90;;;;;;4963411;28;20022;-77
2022/12/01 01:41:53;;;;;;;8.98;5.07;;;4.60;99.90;;;;;;4973466;28;20436;-74
2022/12/01 01:44:51;;;;;;;6.90;3.65;;;4.60;99.90;;;;;;4974378;28;20041;-77
2022/12/01 01:47:40;;;;;;;7.20;3.55;;;4.60;99.90;;;;;;4974500;28;20039;-77
2022/12/01 01:50:20;;;;;;;4.10;2.40;;;4.70;99.90;;;;;;4973734;28;20126;-73
2022/12/01 01:52:58;;;;;;;5.22;2.67;;;4.70;99.90;;;;;;4974254;28;20469;-74
2022/12/01 01:55:24;;;;;;;5.20;3.42;;;4.60;99.90;;;;;;4974653;28;20093;-75
2022/12/01 01:57:52;;;;;;;5.55;2.40;;;4.70;99.90;;;;;;4973963;28;20030;-74
2022/12/01 02:00:20;;;;;;;5.80;2.35;;;4.70;99.90;;;;;;4972581;28;20591;-73
2022/12/01 02:02:47;;;;;;;4.00;2.45;;;4.70;99.90;;;;;;4972636;28;20023;-74
2022/12/01 02:05:33;;;;;;;5.15;2.70;;;4.60;99.90;;;;;;4973029;28;20045;-73
2022/12/01 02:08:02;;;;;;;4.70;2.03;;;4.50;99.90;;;;;;4972483;28;20071;-72
2022/12/01 02:10:49;;;;;;;4.05;2.13;;;4.50;99.90;;;;;;4952921;28;20103;-74
2022/12/01 02:13:21;;;;;;;2.90;1.85;;;4.50;99.90;;;;;;4972638;28;20027;-74
2022/12/01 02:15:55;;;;;;;4.75;2.38;;;4.40;99.90;;;;;;4972606;28;20118;-75
2022/12/01 02:18:46;;;;;;;4.45;2.20;;;4.40;99.90;;;;;;4970072;28;20042;-74
2022/12/01 02:21:26;;;;;;;3.25;1.83;;;4.40;99.90;;;;;;4971712;28;20046;-75
2022/12/01 02:24:13;;;;;;;5.68;2.78;;;4.40;99.90;;;;;;4972699;28;20035;-75
2022/12/01 02:26:49;;;;;;;5.53;2.40;;;4.30;99.90;;;;;;4970424;28;20027;-75
2022/12/01 02:29:33;;;;;;;3.22;2.05;;;4.30;99.90;;;;;;4972305;28;20073;-76
2022/12/01 02:32:23;;;;;;;8.95;4.07;;;4.20;99.90;;;;;;4972418;28;20037;-76
2022/12/01 02:35:12;;;;;;;6.35;2.72;;;4.20;99.90;;;;;;4972648;28;20031;-75
2022/12/01 02:38:04;;;;;;;7.70;3.50;;;4.30;99.90;;;;;;4972196;28;20324;-75
2022/12/01 02:40:38;;;;;;;4.57;2.38;;;4.20;99.90;;;;;;4972413;28;20171;-75
2022/12/01 02:43:23;;;;;;;10.38;4.20;;;4.20;99.90;;;;;;4972430;28;20482;-74
2022/12/01 02:45:59;;;;;;;5.72;2.42;;;4.10;99.90;;;;;;4954819;28;20034;-74
2022/12/01 02:48:28;;;;;;;6.25;2.67;;;4.20;99.90;;;;;;4971734;28;20504;-74
2022/12/01 02:50:58;;;;;;;5.82;2.63;;;4.10;99.90;;;;;;4954422;28;20023;-75
2022/12/01 02:53:24;;;;;;;9.05;4.20;;;4.10;99.90;;;;;;4968292;28;20038;-75
2022/12/01 02:55:52;;;;;;;3.38;1.70;;;4.10;99.90;;;;;;4971964;28;20026;-73
2022/12/01 02:58:18;;;;;;;8.13;3.72;;;4.10;99.90;;;;;;4971283;28;20126;-74
2022/12/01 03:01:07;;;;;;;6.57;2.90;;;4.10;99.90;;;;;;4971937;28;20038;-74
2022/12/01 03:04:00;;;;;;;2.88;1.60;;;4.10;99.90;;;;;;4972542;28;20056;-74
2022/12/01 03:06:48;;;;;;;4.75;2.00;;;4.10;99.90;;;;;;4971837;28;20035;-76
2022/12/01 03:09:40;;;;;;;3.58;2.33;;;4.10;99.90;;;;;;4971726;28;20042;-74
2022/12/01 03:12:11;;;;;;;3.65;1.60;;;4.10;99.90;;;;;;4954888;28;20031;-74
2022/12/01 03:14:50;;;;;;;3.03;1.88;;;4.10;99.90;;;;;;4968709;28;20019;-76
2022/12/01 03:17:24;;;;;;;4.35;1.65;;;4.10;99.90;;;;;;4968867;28;20027;-76
2022/12/01 03:19:59;;;;;;;3.15;1.65;;;4.10;99.90;;;;;;4968811;28;20035;-75
2022/12/01 03:22:33;;;;;;;6.28;2.83;;;4.10;99.90;;;;;;4968944;28;20101;-74
2022/12/01 03:25:02;;;;;;;5.47;2.65;;;4.20;99.90;;;;;;4968791;28;20128;-75
2022/12/01 03:27:33;;;;;;;5.43;2.85;;;4.20;99.90;;;;;;4967827;28;20035;-76
2022/12/01 03:30:00;;;;;;;4.70;2.53;;;4.20;99.90;;;;;;4971085;28;20675;-76
2022/12/01 03:32:34;;;;;;;3.55;1.70;;;4.20;99.90;;;;;;4971315;28;20015;-75
2022/12/01 03:35:15;;;;;;;5.25;2.90;;;4.30;99.90;;;;;;4970128;28;20034;-75
2022/12/01 03:37:52;;;;;;;3.40;2.15;;;4.30;99.90;;;;;;4971388;28;20019;-76
2022/12/01 03:40:24;;;;;;;4.20;1.33;;;4.30;99.90;;;;;;4971240;28;20106;-76
2022/12/01 03:42:57;;;;;;;4.95;3.20;;;4.30;99.90;;;;;;4971208;28;20097;-75
2022/12/01 03:45:32;;;;;;;4.20;2.20;;;4.30;99.90;;;;;;4971211;28;20405;-76
2022/12/01 03:47:58;;;;;;;4.47;2.75;;;4.30;99.90;;;;;;4971068;28;20046;-75
2022/12/01 03:50:30;;;;;;;2.35;1.50;;;4.30;99.90;;;;;;4971150;28;20481;-74
2022/12/01 03:53:24;;;;;;;2.85;1.58;;;4.30;99.90;;;;;;4971358;28;20496;-75
2022/12/01 03:55:56;;;;;;;2.03;1.63;;;4.40;99.90;;;;;;4971613;28;20041;-74
2022/12/01 03:58:33;;;;;;;2.10;1.23;;;4.40;99.90;;;;;;4970159;28;20059;-74
2022/12/01 04:01:01;;;;;;;2.47;1.83;;;4.40;99.90;;;;;;4970474;28;20081;-74
2022/12/01 04:03:27;;;;;;;3.08;1.60;;;4.40;99.90;;;;;;4969990;28;20050;-74
2022/12/01 04:05:53;;;;;;;2.97;1.35;;;4.40;99.90;;;;;;4970857;28;20043;-74
2022/12/01 04:08:19;;;;;;;2.08;1.10;;;4.40;99.90;;;;;;4971160;28;20039;-74
2022/12/01 04:10:45;;;;;;;1.15;1.05;;;4.40;99.90;;;;;;4971160;28;20034;-74
2022/12/01 04:13:20;;;;;;;2.33;1.20;;;4.50;99.90;;;;;;4971074;28;20022;-74
2022/12/01 04:15:48;;;;;;;2.38;1.50;;;4.50;99.90;;;;;;4970838;28;20389;-74
2022/12/01 04:18:14;;;;;;;1.75;1.40;;;4.50;99.90;;;;;;4970843;28;20030;-74
2022/12/01 04:20:42;;;;;;;3.05;1.30;;;4.40;99.90;;;;;;4971313;28;20023;-74
2022/12/01 04:23:08;;;;;;;1.73;1.25;;;4.50;99.90;;;;;;4970715;28;20031;-75
2022/12/01 04:25:34;;;;;;;2.80;1.20;;;4.50;99.90;;;;;;4971118;28;20385;-77
2022/12/01 04:28:00;;;;;;;4.63;1.08;;;4.50;99.90;;;;;;4970485;28;20031;-75
2022/12/01 04:30:25;;;;;;;2.00;1.33;;;4.40;99.90;;;;;;4970811;28;20045;-75
2022/12/01 04:32:51;;;;;;;3.28;1.77;;;4.40;99.90;;;;;;4970263;28;20026;-76
2022/12/01 04:35:17;;;;;;;2.92;1.40;;;4.50;99.90;;;;;;4970241;28;20470;-74
2022/12/01 04:37:43;;;;;;;3.13;1.35;;;4.40;99.90;;;;;;4970775;28;20070;-75
2022/12/01 04:40:09;;;;;;;3.80;1.80;;;4.40;99.90;;;;;;4970831;28;20054;-74
2022/12/01 04:42:35;;;;;;;3.95;2.55;;;4.40;99.90;;;;;;4970927;28;20019;-74
2022/12/01 04:45:03;;;;;;;3.70;2.33;;;4.40;99.90;;;;;;4970666;28;20408;-75
2022/12/01 04:47:29;;;;;;;1.70;1.23;;;4.40;99.90;;;;;;4970368;28;20035;-73
2022/12/01 04:49:55;;;;;;;3.20;1.70;;;4.40;99.90;;;;;;4971924;28;20073;-75
2022/12/01 04:52:20;;;;;;;4.72;2.30;;;4.40;99.90;;;;;;4971889;28;20107;-75
2022/12/01 04:54:46;;;;;;;8.75;4.72;;;4.40;99.90;;;;;;4971695;28;20035;-75
2022/12/01 04:57:12;;;;;;;5.70;2.75;;;4.40;99.90;;;;;;4971450;28;20023;-75
2022/12/01 04:59:38;;;;;;;7.82;3.38;;;4.40;99.90;;;;;;4971734;28;20065;-75
2022/12/01 05:02:04;;;;;;;9.00;4.03;;;4.40;99.90;;;;;;4971561;28;20118;-74
2022/12/01 05:04:31;;;;;;;3.47;2.10;;;4.40;99.90;;;;;;4971346;28;20469;-75
2022/12/01 05:06:57;;;;;;;3.20;2.33;;;4.40;99.90;;;;;;4971621;28;20046;-75
2022/12/01 05:09:22;;;;;;;3.13;1.85;;;4.50;99.90;;;;;;4971987;28;20462;-76
2022/12/01 05:11:48;;;;;;;3.92;2.05;;;4.50;99.90;;;;;;4971824;28;20033;-75
2022/12/01 05:14:14;;;;;;;4.30;2.25;;;4.50;99.90;;;;;;4971575;28;20038;-76
2022/12/01 05:16:40;;;;;;;3.97;2.30;;;4.50;99.90;;;;;;4974859;28;20019;-75
2022/12/01 05:21:52;;;;;;;2.42;1.80;;;4.50;99.90;;;;;;4933666;29;20059;-75
2022/12/01 05:24:18;;;;;;;4.82;2.40;;;4.60;99.90;;;;;;4934147;29;20457;-75
2022/12/01 05:26:44;;;;;;;7.53;3.22;;;4.60;99.90;;;;;;4933992;29;20044;-75
2022/12/01 05:29:11;;;;;;;7.90;4.85;;;4.60;99.90;;;;;;4933598;29;20042;-75
2022/12/01 05:31:38;;;;;;;8.90;3.85;;;4.60;99.90;;;;;;4933639;29;20036;-74
2022/12/01 05:34:04;;;;;;;5.68;3.17;;;4.60;99.90;;;;;;4925224;29;20458;-74
2022/12/01 05:36:31;;;;;;;7.60;3.53;;;4.60;99.90;;;;;;4933798;29;20071;-74
2022/12/01 05:38:56;;;;;;;3.15;1.85;;;4.60;99.90;;;;;;4933712;29;20105;-74
2022/12/01 05:41:23;;;;;;;9.75;4.53;;;4.60;99.90;;;;;;4933782;29;20114;-74
2022/12/01 05:43:49;;;;;;;4.18;2.38;;;4.60;99.90;;;;;;4933206;29;20137;-74
2022/12/01 05:46:15;;;;;;;5.22;2.00;;;4.60;99.90;;;;;;4933939;29;20048;-74
2022/12/01 05:48:41;;;;;;;6.05;3.40;;;4.60;99.90;;;;;;4933882;29;20079;-74
2022/12/01 05:51:12;;;;;;;12.93;4.10;;;4.60;99.90;;;;;;4933665;29;20047;-73
2022/12/01 05:53:38;;;;;;;11.55;5.25;;;4.60;99.90;;;;;;4933300;29;20435;-74
2022/12/01 05:56:04;;;;;;;9.65;3.75;;;4.60;99.90;;;;;;4933594;29;20056;-74
2022/12/01 05:58:30;;;;;;;5.18;2.83;;;4.60;99.90;;;;;;4946100;28;20050;-74
2022/12/01 06:00:56;;;;;;;3.63;2.05;;;4.60;99.90;;;;;;4973569;28;20035;-74
2022/12/01 06:03:22;;;;;;;3.83;1.95;;;4.60;99.90;;;;;;4974107;28;20358;-74
2022/12/01 06:05:48;;;;;;;2.75;1.50;;;4.60;99.90;;;;;;4974235;28;20023;-74
2022/12/01 06:08:14;;;;;;;4.07;2.45;;;4.60;99.90;;;;;;4974078;28;20027;-74
2022/12/01 06:10:40;;;;;;;3.65;2.38;;;4.60;99.90;;;;;;4974204;28;20096;-74
2022/12/01 06:13:05;;;;;;;3.85;2.22;;;4.70;99.90;;;;;;4974312;28;20034;-74
2022/12/01 06:15:31;;;;;;;11.40;4.47;;;4.60;99.90;;;;;;4973814;28;20022;-74
2022/12/01 06:18:01;;;;;;;5.70;3.28;;;4.60;99.90;;;;;;4973955;28;20078;-74
2022/12/01 06:20:27;;;;;;;7.45;3.92;;;4.70;99.90;;;;;;4974301;28;20450;-74
2022/12/01 06:22:53;;;;;;;6.20;2.60;;;4.60;99.90;;;;;;4974329;28;20114;-74
2022/12/01 06:25:18;;;;;;;4.68;2.58;;;4.70;99.90;;;;;;4973593;28;20031;-73
2022/12/01 06:27:44;;;;;;;2.72;1.90;;;4.70;99.90;;;;;;4973492;28;20046;-74
2022/12/01 06:30:10;;;;;;;3.40;2.00;;;4.80;99.90;;;;;;4973757;28;20477;-74
2022/12/01 06:32:36;;;;;;;4.63;1.83;;;4.80;99.90;;;;;;4973025;28;20026;-75
2022/12/01 06:35:02;;;;;;;4.93;2.47;;;4.90;99.90;;;;;;4972388;28;20018;-75
2022/12/01 06:37:28;;;;;;;5.80;2.35;;;4.90;99.90;;;;;;4973080;28;20028;-75
2022/12/01 06:39:54;;;;;;;9.52;3.92;;;5.00;99.90;;;;;;4973184;28;20151;-74
2022/12/01 06:42:20;;;;;;;11.85;5.82;;;5.00;99.90;;;;;;4973829;28;20026;-74
2022/12/01 06:44:46;;;;;;;4.28;2.55;;;5.10;99.90;;;;;;4973285;28;20030;-73
2022/12/01 06:47:12;;;;;;;3.60;2.17;;;5.10;99.90;;;;;;4972555;28;20435;-75
2022/12/01 06:49:37;;;;;;;5.80;2.15;;;5.20;99.90;;;;;;4972204;28;20026;-74
2022/12/01 06:52:04;;;;;;;1.83;1.20;;;5.30;99.90;;;;;;4971079;28;20035;-75
2022/12/01 06:54:29;;;;;;;2.13;1.30;;;5.40;99.90;;;;;;4972291;28;20421;-75
2022/12/01 06:56:55;;;;;;;3.22;1.80;;;5.50;99.90;;;;;;4973436;28;20034;-74
2022/12/01 06:59:21;;;;;;;3.85;1.60;;;5.50;99.90;;;;;;4971877;28;20035;-74
2022/12/01 07:01:47;;;;;;;3.50;2.05;;;5.50;99.90;;;;;;4972512;28;20031;-75
2022/12/01 07:04:13;;;;;;;6.90;3.20;;;5.50;99.90;;;;;;4970767;28;20041;-74
2022/12/01 07:06:39;;;;;;;4.90;1.50;;;5.50;99.90;;;;;;4972648;28;20031;-75
2022/12/01 07:09:04;;;;;;;1.77;1.48;;;5.60;99.90;;;;;;4972565;28;20490;-74
2022/12/01 07:11:31;;;;;;;6.63;3.60;;;5.60;99.90;;;;;;4972591;28;20026;-73
2022/12/01 07:13:57;;;;;;;11.13;5.15;;;5.50;99.90;;;;;;4986530;28;20041;-74
2022/12/01 07:16:23;;;;;;;15.10;6.28;;;5.50;99.90;;;;;;4972576;28;20089;-74
2022/12/01 07:18:49;;;;;;;3.47;2.00;;;5.60;99.90;;;;;;4973175;28;20083;-74
2022/12/01 07:21:15;;;;;;;6.05;2.63;;;5.70;99.90;;;;;;4972818;28;20046;-74
2022/12/01 07:23:41;;;;;;;9.50;4.38;;;5.60;99.90;;;;;;4972236;28;20050;-76
2022/12/01 07:26:16;;;;;;;18.70;8.93;;;5.60;99.90;;;;;;4972526;28;20018;-74
2022/12/01 07:28:43;;;;;;;10.52;4.32;;;5.60;99.90;;;;;;4971817;28;20043;-75
2022/12/01 07:31:14;;;;;;;9.48;4.50;;;5.60;99.90;;;;;;4972210;28;20041;-75
2022/12/01 07:33:40;;;;;;;8.00;3.35;;;5.50;99.90;;;;;;4972014;28;20031;-77
2022/12/01 07:36:07;;;;;;;17.98;7.07;;;5.60;99.90;;;;;;4968587;28;20027;-75
2022/12/01 07:38:34;;;;;;;9.63;4.57;;;5.60;99.90;;;;;;4970810;28;20065;-75
2022/12/01 07:41:04;;;;;;;7.43;3.20;;;5.70;99.90;;;;;;4971994;28;20049;-75
2022/12/01 07:43:31;;;;;;;2.92;1.92;;;5.70;99.90;;;;;;4970970;28;20065;-75
2022/12/01 07:46:22;;;;;;;1.30;1.20;;;5.70;99.90;;;;;;4971402;28;20086;-76
2022/12/01 07:48:48;;;;;;;3.67;1.88;;;5.70;99.90;;;;;;4968543;28;20097;-75
2022/12/01 07:51:15;;;;;;;4.32;2.60;;;5.70;99.90;;;;;;4972249;28;20022;-75
2022/12/01 07:53:42;;;;;;;8.77;4.50;;;5.70;99.90;;;;;;4972554;28;20031;-75
2022/12/01 07:56:08;;;;;;;8.68;3.67;;;5.60;99.90;;;;;;4966636;28;20031;-73
2022/12/01 07:58:34;;;;;;;13.52;6.47;;;5.70;99.90;;;;;;4971660;28;20058;-73
2022/12/01 08:01:09;;;;;;;5.22;2.50;;;5.60;99.90;;;;;;4972256;28;20042;-73
2022/12/01 08:03:35;;;;;;;12.73;5.50;;;5.70;99.90;;;;;;4972473;28;20105;-73
2022/12/01 08:06:01;;;;;;;5.45;2.63;;;5.60;99.90;;;;;;4971702;28;20381;-74
2022/12/01 08:08:29;;;;;;;9.45;4.43;;;5.60;99.90;;;;;;4971816;28;20042;-74
2022/12/01 08:11:01;;;;;;;3.08;1.88;;;5.50;99.90;;;;;;4971611;28;20478;-75
2022/12/01 08:13:27;;;;;;;5.35;2.70;;;5.50;99.90;;;;;;4971782;28;20031;-76
2022/12/01 08:15:53;;;;;;;10.27;4.80;;;5.60;99.90;;;;;;4972138;28;20417;-74
2022/12/01 08:18:19;;;;;;;15.18;6.25;;;5.50;99.90;;;;;;4970429;28;20034;-77
2022/12/01 08:20:45;;;;;;;10.95;5.18;;;5.50;99.90;;;;;;4954401;28;20030;-75
2022/12/01 08:23:10;;;;;;;10.48;4.38;;;5.50;99.90;;;;;;4971811;28;20045;-77
2022/12/01 08:25:36;;;;;;;9.80;4.45;;;5.60;99.90;;;;;;4972358;28;20030;-76
2022/12/01 08:28:02;;;;;;;7.70;3.90;;;5.60;99.90;;;;;;4954335;28;20043;-75
2022/12/01 08:30:28;;;;;;;8.00;3.92;;;5.60;99.90;;;;;;4971841;28;20023;-77
2022/12/01 08:32:55;;;;;;;11.20;4.93;;;5.70;99.90;;;;;;4972146;28;20043;-76
2022/12/01 08:35:22;;;;;;;6.72;3.10;;;5.70;99.90;;;;;;4971385;28;20458;-77
2022/12/01 08:37:51;;;;;;;6.45;2.92;;;5.80;99.90;;;;;;4971784;28;20518;-76
2022/12/01 08:40:18;;;;;;;7.10;3.15;;;5.90;99.90;;;;;;4971705;28;20027;-75
2022/12/01 08:42:44;;;;;;;9.05;3.90;;;5.90;99.90;;;;;;4972012;28;20031;-77
2022/12/01 08:45:10;;;;;;;7.32;3.55;;;6.00;99.90;;;;;;4971606;28;20033;-76
2022/12/01 08:47:36;;;;;;;7.63;3.78;;;6.10;99.90;;;;;;4971468;28;20496;-75
2022/12/01 08:50:03;;;;;;;8.10;3.22;;;6.00;99.90;;;;;;4971172;28;20019;-77
2022/12/01 08:52:33;;;;;;;10.13;4.32;;;6.00;99.90;;;;;;4973755;28;20090;-77
2022/12/01 08:54:59;;;;;;;5.43;2.95;;;6.20;99.90;;;;;;4974922;28;20069;-77
2022/12/01 08:57:25;;;;;;;3.70;2.00;;;6.10;99.90;;;;;;4975452;28;20584;-77
2022/12/01 08:59:50;;;;;;;8.52;4.00;;;6.20;99.90;;;;;;4974939;28;20129;-74
2022/12/01 09:02:21;;;;;;;7.68;3.55;;;6.40;99.90;;;;;;4975154;28;20031;-76
2022/12/01 09:04:48;;;;;;;11.82;5.07;;;6.50;99.90;;;;;;4974909;28;20034;-76
2022/12/01 09:07:15;;;;;;;5.30;3.20;;;6.50;99.90;;;;;;4975629;28;20060;-76
2022/12/01 09:09:42;;;;;;;5.70;2.92;;;6.50;99.90;;;;;;4975159;28;20050;-75
2022/12/01 09:12:08;;;;;;;4.13;2.13;;;6.60;99.90;;;;;;4974555;28;20031;-75
2022/12/01 09:14:39;;;;;;;4.22;1.92;;;6.70;99.90;;;;;;4974789;28;20089;-76
2022/12/01 09:17:06;;;;;;;4.50;2.22;;;7.00;99.90;;;;;;4974026;28;20039;-79
2022/12/01 09:19:32;;;;;;;6.18;2.78;;;7.00;99.90;;;;;;4961512;28;20085;-76
2022/12/01 09:21:59;;;;;;;7.55;3.72;;;7.20;99.90;;;;;;4974543;28;20037;-76
2022/12/01 09:24:25;;;;;;;6.80;4.00;;;7.40;99.90;;;;;;4974639;28;20033;-72
2022/12/01 09:26:58;;;;;;;4.60;2.47;;;7.50;99.90;;;;;;4957652;28;20093;-74
2022/12/01 09:29:24;;;;;;;6.18;3.05;;;7.80;99.90;;;;;;4974050;28;20026;-74
2022/12/01 09:31:53;;;;;;;6.15;3.63;;;7.70;99.90;;;;;;4974924;28;20038;-74
2022/12/01 09:34:19;;;;;;;5.47;2.85;;;7.80;99.90;;;;;;4974262;28;20027;-74
2022/12/01 09:36:46;;;;;;;5.47;2.50;;;7.60;99.90;;;;;;4974688;28;20099;-74
2022/12/01 09:39:18;;;;;;;4.07;2.50;;;7.90;99.90;;;;;;4973586;28;20488;-74
2022/12/01 09:41:58;;;;;;;3.28;1.88;;;7.90;99.90;;;;;;4974121;28;20027;-74
2022/12/01 09:44:48;;;;;;;3.92;2.20;;;7.70;99.90;;;;;;4974427;28;20469;-74
2022/12/01 09:47:30;;;;;;;5.47;2.63;;;7.50;99.90;;;;;;4963216;28;20053;-74
2022/12/01 09:50:11;;;;;;;6.07;2.10;;;7.40;99.90;;;;;;4974311;28;20038;-74
2022/12/01 09:52:56;;;;;;;3.67;1.98;;;7.40;99.90;;;;;;4974691;28;20037;-74
2022/12/01 09:55:24;;;;;;;5.53;2.45;;;7.40;99.90;;;;;;4973844;28;20034;-74
2022/12/01 09:57:53;;;;;;;20.48;5.25;;;7.40;99.90;;;;;;4974757;28;20035;-74
2022/12/01 10:00:23;;;;;;;7.25;3.83;;;7.50;99.90;;;;;;4960989;28;20544;-73
2022/12/01 10:03:14;;;;;;;5.13;2.90;;;7.30;99.90;;;;;;4955911;28;20465;-74
2022/12/01 10:05:50;;;;;;;6.22;2.58;;;7.30;99.90;;;;;;4972907;28;20046;-73
2022/12/01 10:08:23;;;;;;;6.63;3.67;;;7.20;99.90;;;;;;4974111;28;20093;-74
2022/12/01 10:10:53;;;;;;;7.13;2.85;;;7.10;99.90;;;;;;4956441;28;20066;-74
2022/12/01 10:13:23;;;;;;;9.07;3.42;;;6.90;99.90;;;;;;4973631;28;20722;-74
2022/12/01 10:16:12;;;;;;;8.27;3.70;;;6.80;99.90;;;;;;4972784;28;20034;-74
2022/12/01 10:18:58;;;;;;;9.00;3.47;;;6.90;99.90;;;;;;4971150;28;20015;-74
2022/12/01 10:21:48;;;;;;;6.55;2.80;;;7.00;99.90;;;;;;4973649;28;20031;-74
2022/12/01 10:24:35;;;;;;;8.00;4.07;;;6.70;99.90;;;;;;4973887;28;20082;-75
2022/12/01 10:27:21;;;;;;;7.10;2.97;;;6.90;99.90;;;;;;4962270;28;20034;-74
2022/12/01 10:30:07;;;;;;;11.57;4.93;;;6.90;99.90;;;;;;4973605;28;20034;-78
2022/12/01 10:33:01;;;;;;;7.70;3.15;;;6.90;99.90;;;;;;4973574;28;20073;-75
2022/12/01 10:35:28;;;;;;;;;;;6.90;99.90;;;;;;4973824;28;20031;-74
2022/12/01 10:38:00;;;;;;;8.60;3.75;;;7.00;99.90;;;;;;4973360;28;19910;-73
2022/12/01 10:40:26;;;;;;;6.65;3.30;;;6.90;99.90;;;;;;4973506;28;20485;-76
2022/12/01 10:42:53;;;;;;;7.13;2.90;;;7.00;99.90;;;;;;4973666;28;20393;-73
2022/12/01 10:45:25;;;;;;;10.45;5.07;;;7.00;99.90;;;;;;4972005;28;20034;-76
2022/12/01 10:48:14;;;;;;;8.43;3.40;;;7.00;99.90;;;;;;4972047;28;20037;-77
2022/12/01 10:50:42;;;;;;;9.43;4.07;;;6.70;99.90;;;;;;4972524;28;20046;-74
2022/12/01 10:53:25;;;;;;;7.15;3.65;;;6.80;99.90;;;;;;4972814;28;20186;-77
2022/12/01 10:55:57;;;;;;;8.88;4.13;;;6.70;99.90;;;;;;4955958;28;20105;-76
2022/12/01 10:58:23;;;;;;;7.78;3.83;;;6.70;99.90;;;;;;4962529;28;20485;-77
2022/12/01 11:01:18;;;;;;;9.23;4.30;;;6.70;99.90;;;;;;4973003;28;20031;-74
2022/12/01 11:03:50;;;;;;;10.07;5.60;;;6.70;99.90;;;;;;4969509;28;20445;-75
2022/12/01 11:06:21;;;;;;;7.35;2.95;;;6.70;99.90;;;;;;4972667;28;20034;-73
2022/12/01 11:08:53;;;;;;;8.90;3.83;;;6.80;99.90;;;;;;4972517;28;20125;-76
2022/12/01 11:11:32;;;;;;;16.20;6.50;;;6.80;99.90;;;;;;4971745;28;20502;-76
2022/12/01 11:14:02;;;;;;;8.82;4.38;;;6.80;99.90;;;;;;4972034;28;20493;-77
2022/12/01 11:16:41;;;;;;;7.63;4.28;;;6.60;99.90;;;;;;4972576;28;20030;-75
2022/12/01 11:19:21;;;;;;;12.35;5.68;;;6.60;99.90;;;;;;4973441;28;20161;-75
2022/12/01 11:21:50;;;;;;;8.32;4.63;;;6.50;99.90;;;;;;4972993;28;20030;-78
2022/12/01 11:24:39;;;;;;;13.15;6.13;;;6.50;99.90;;;;;;4973068;28;20026;-76
2022/12/01 11:27:16;;;;;;;7.90;3.65;;;6.40;99.90;;;;;;4972880;28;20031;-75
2022/12/01 11:29:42;;;;;;;10.80;5.55;;;6.40;99.90;;;;;;4972388;28;20019;-74
2022/12/01 11:32:29;;;;;;;9.30;4.90;;;6.50;99.90;;;;;;4972090;28;20477;-75
2022/12/01 11:35:18;;;;;;;11.15;6.05;;;6.50;99.90;;;;;;4987132;28;20386;-74
2022/12/01 11:37:53;;;;;;;7.22;3.92;;;6.40;99.90;;;;;;4964886;28;20061;-77
2022/12/01 11:40:35;;;;;;;10.52;5.25;;;6.40;99.90;;;;;;4972182;28;20035;-75
2022/12/01 11:43:05;;;;;;;12.35;6.05;;;6.30;99.90;;;;;;4972040;28;20030;-77
2022/12/01 11:45:38;;;;;;;14.15;6.60;;;6.40;99.90;;;;;;4971944;28;20023;-77
2022/12/01 11:48:17;;;;;;;20.58;7.00;;;6.50;99.90;;;;;;4972178;28;20070;-75
2022/12/01 11:51:19;;;;;;;14.48;6.93;;;6.50;99.90;;;;;;4971874;28;20485;-73
2022/12/01 11:53:45;;;;;;;10.88;5.38;;;6.30;99.90;;;;;;4914407;29;20067;-75
2022/12/01 11:56:19;;;;;;;13.18;6.90;;;6.20;99.90;;;;;;4915507;29;20513;-75
2022/12/01 11:58:47;;;;;;;13.25;6.40;;;6.20;99.90;;;;;;4920278;29;20153;-74
2022/12/01 12:01:49;;;;;;;9.35;3.92;;;6.20;99.90;;;;;;4930690;29;20151;-75
2022/12/01 12:04:34;;;;;;;9.32;4.68;;;6.10;99.90;;;;;;4916077;29;20036;-74
2022/12/01 12:07:05;;;;;;;12.23;5.72;;;6.10;99.90;;;;;;4911785;29;20143;-74
2022/12/01 12:09:53;;;;;;;8.32;4.28;;;6.10;99.90;;;;;;4912740;29;20107;-74
2022/12/01 12:12:19;;;;;;;12.50;6.75;;;6.10;99.90;;;;;;4923279;29;20465;-75
2022/12/01 12:15:12;;;;;;;11.20;6.72;;;6.00;99.90;;;;;;4916875;29;20028;-73
2022/12/01 12:17:59;;;;;;;13.50;6.38;;;6.00;99.90;;;;;;4929861;29;20806;-73
2022/12/01 12:20:50;;;;;;;18.27;10.20;;;5.90;99.90;;;;;;4917212;29;20031;-73
2022/12/01 12:23:26;;;;;;;13.98;7.55;;;5.90;99.90;;;;;;4930588;29;20050;-72
2022/12/01 12:26:01;;;;;;;13.18;6.88;;;5.90;99.90;;;;;;4933939;29;20056;-73
2022/12/01 12:28:41;;;;;;;10.93;5.97;;;5.80;99.90;;;;;;4925884;29;20043;-74
2022/12/01 12:31:17;;;;;;;17.73;8.43;;;5.90;99.90;;;;;;4959577;28;20074;-72
2022/12/01 12:33:50;;;;;;;12.70;6.25;;;5.90;99.90;;;;;;4975528;28;20098;-72
2022/12/01 12:36:38;;;;;;;14.55;5.65;;;5.80;99.90;;;;;;4975800;28;20031;-74
2022/12/01 12:39:23;;;;;;;11.30;5.90;;;5.90;99.90;;;;;;4975510;28;20381;-71
2022/12/01 12:41:52;;;;;;;14.38;6.43;;;5.90;99.90;;;;;;4975924;28;20031;-73
2022/12/01 12:44:33;;;;;;;11.63;5.07;;;5.80;99.90;;;;;;4973241;28;20027;-75
2022/12/01 12:46:59;;;;;;;8.70;4.38;;;5.80;99.90;;;;;;4973878;28;20077;-72
2022/12/01 12:49:46;;;;;;;8.52;4.88;;;5.80;99.90;;;;;;4975514;28;20062;-72
2022/12/01 12:52:17;;;;;;;5.68;3.53;;;5.80;99.90;;;;;;4971078;28;20035;-75
2022/12/01 12:54:49;;;;;;;8.75;3.70;;;5.80;99.90;;;;;;4975196;28;20062;-74
2022/12/01 12:57:32;;;;;;;12.77;5.97;;;5.60;99.90;;;;;;4974481;28;20385;-75
2022/12/01 13:00:12;;;;;;;22.27;12.15;;;5.70;99.90;;;;;;4972426;28;20486;-75
2022/12/01 13:02:54;;;;;;;20.13;9.05;;;5.60;99.90;;;;;;4974930;28;20038;-73
2022/12/01 13:05:32;;;;;;;37.15;20.83;;;5.70;99.90;;;;;;4975038;28;20388;-77
2022/12/01 13:08:30;;;;;;;29.45;17.33;;;5.50;99.90;;;;;;4975157;28;20054;-75
2022/12/01 13:11:22;;;;;;;22.45;12.68;;;5.50;99.90;;;;;;4974224;28;20477;-75
2022/12/01 13:14:07;;;;;;;8.77;4.90;;;5.50;99.90;;;;;;4973797;28;20046;-75
2022/12/01 13:16:38;;;;;;;9.70;4.63;;;5.50;99.90;;;;;;4975080;28;20037;-75
2022/12/01 13:19:24;;;;;;;16.17;7.80;;;5.50;99.90;;;;;;4975265;28;20105;-74
2022/12/01 13:21:51;;;;;;;15.25;6.80;;;5.50;99.90;;;;;;4974190;28;20081;-74
2022/12/01 13:24:22;;;;;;;22.08;11.10;;;5.50;99.90;;;;;;4974807;28;20058;-74